sensor_id;sensor_type;location;lat;lon;timestamp;P1;durP1;ratioP1;P2;durP2;ratioP2
6438;SDS011;3252;52.540;13.290;2023-03-02T00:00:02;15.50;;;8.83;;
6438;SDS011;3252;52.540;13.290;2023-03-02T00:02:19;14.23;;;7.53;;
6438;SDS011;3252;52.540;13.290;2023-03-02T00:04:24;14.43;;;9.37;;
6438;SDS011;3252;52.540;13.290;2023-03-02T00:06:35;15.20;;;9.10;;
6438;SDS011;3252;52.540;13.290;2023-03-02T00:08:42;14.40;;;8.60;;
6438;SDS011;3252;52.540;13.290;2023-03-02T00:10:45;13.13;;;8.50;;
6438;SDS011;3252;52.540;13.290;2023-03-02T00:12:58;11.90;;;8.30;;
6438;SDS011;3252;52.540;13.290;2023-03-02T00:15:06;13.47;;;8.37;;
6438;SDS011;3252;52.540;13.290;2023-03-02T00:17:18;14.67;;;9.23;;
6438;SDS011;3252;52.540;13.290;2023-03-02T00:19:27;13.97;;;9.17;;
6438;SDS011;3252;52.540;13.290;2023-03-02T00:21:33;15.13;;;8.80;;
6438;SDS011;3252;52.540;13.290;2023-03-02T00:23:45;14.60;;;10.03;;
6438;SDS011;3252;52.540;13.290;2023-03-02T00:26:01;15.77;;;9.70;;
6438;SDS011;3252;52.540;13.290;2023-03-02T00:28:05;16.97;;;10.20;;
6438;SDS011;3252;52.540;13.290;2023-03-02T00:30:12;15.50;;;9.33;;
6438;SDS011;3252;52.540;13.290;2023-03-02T00:32:16;15.87;;;9.47;;
6438;SDS011;3252;52.540;13.290;2023-03-02T00:34:27;15.17;;;10.07;;
6438;SDS011;3252;52.540;13.290;2023-03-02T00:36:52;15.27;;;10.23;;
6438;SDS011;3252;52.540;13.290;2023-03-02T00:39:05;19.50;;;9.70;;
6438;SDS011;3252;52.540;13.290;2023-03-02T00:41:23;14.50;;;9.60;;
6438;SDS011;3252;52.540;13.290;2023-03-02T00:43:48;16.73;;;10.83;;
6438;SDS011;3252;52.540;13.290;2023-03-02T00:45:58;17.80;;;10.17;;
6438;SDS011;3252;52.540;13.290;2023-03-02T00:48:08;18.27;;;10.77;;
6438;SDS011;3252;52.540;13.290;2023-03-02T00:50:12;19.07;;;10.60;;
6438;SDS011;3252;52.540;13.290;2023-03-02T00:52:17;16.90;;;10.57;;
6438;SDS011;3252;52.540;13.290;2023-03-02T00:54:25;18.73;;;11.20;;
6438;SDS011;3252;52.540;13.290;2023-03-02T00:56:28;17.37;;;10.80;;
6438;SDS011;3252;52.540;13.290;2023-03-02T00:58:39;19.77;;;10.53;;
6438;SDS011;3252;52.540;13.290;2023-03-02T01:00:55;16.47;;;11.00;;
6438;SDS011;3252;52.540;13.290;2023-03-02T01:03:00;18.50;;;11.03;;
6438;SDS011;3252;52.540;13.290;2023-03-02T01:05:05;18.63;;;11.93;;
6438;SDS011;3252;52.540;13.290;2023-03-02T01:07:09;19.40;;;11.57;;
6438;SDS011;3252;52.540;13.290;2023-03-02T01:09:19;16.87;;;10.53;;
6438;SDS011;3252;52.540;13.290;2023-03-02T01:11:26;15.20;;;10.33;;
6438;SDS011;3252;52.540;13.290;2023-03-02T01:13:48;21.40;;;11.47;;
6438;SDS011;3252;52.540;13.290;2023-03-02T01:16:05;19.33;;;10.77;;
6438;SDS011;3252;52.540;13.290;2023-03-02T01:18:15;17.33;;;11.07;;
6438;SDS011;3252;52.540;13.290;2023-03-02T01:20:18;18.60;;;11.70;;
6438;SDS011;3252;52.540;13.290;2023-03-02T01:22:25;19.03;;;11.60;;
6438;SDS011;3252;52.540;13.290;2023-03-02T01:24:32;18.37;;;12.30;;
6438;SDS011;3252;52.540;13.290;2023-03-02T01:26:35;17.43;;;11.27;;
6438;SDS011;3252;52.540;13.290;2023-03-02T01:28:38;17.27;;;12.20;;
6438;SDS011;3252;52.540;13.290;2023-03-02T01:30:47;17.57;;;11.80;;
6438;SDS011;3252;52.540;13.290;2023-03-02T01:32:53;18.20;;;11.93;;
6438;SDS011;3252;52.540;13.290;2023-03-02T01:34:56;20.47;;;12.40;;
6438;SDS011;3252;52.540;13.290;2023-03-02T01:37:00;20.80;;;12.53;;
6438;SDS011;3252;52.540;13.290;2023-03-02T01:39:06;17.67;;;12.00;;
6438;SDS011;3252;52.540;13.290;2023-03-02T01:44:46;18.30;;;11.97;;
6438;SDS011;3252;52.540;13.290;2023-03-02T01:46:56;19.40;;;11.73;;
6438;SDS011;3252;52.540;13.290;2023-03-02T01:49:03;20.70;;;12.63;;
6438;SDS011;3252;52.540;13.290;2023-03-02T01:51:44;17.93;;;11.57;;
6438;SDS011;3252;52.540;13.290;2023-03-02T01:53:52;17.87;;;11.27;;
6438;SDS011;3252;52.540;13.290;2023-03-02T01:56:13;18.13;;;11.83;;
6438;SDS011;3252;52.540;13.290;2023-03-02T01:58:20;19.30;;;11.30;;
6438;SDS011;3252;52.540;13.290;2023-03-02T02:00:24;20.80;;;12.27;;
6438;SDS011;3252;52.540;13.290;2023-03-02T02:02:39;23.23;;;12.03;;
6438;SDS011;3252;52.540;13.290;2023-03-02T02:04:44;18.80;;;12.00;;
6438;SDS011;3252;52.540;13.290;2023-03-02T02:06:58;17.73;;;11.17;;
6438;SDS011;3252;52.540;13.290;2023-03-02T02:09:02;18.73;;;11.97;;
6438;SDS011;3252;52.540;13.290;2023-03-02T02:11:13;19.40;;;11.63;;
6438;SDS011;3252;52.540;13.290;2023-03-02T02:13:25;19.33;;;11.47;;
6438;SDS011;3252;52.540;13.290;2023-03-02T02:15:29;17.43;;;10.67;;
6438;SDS011;3252;52.540;13.290;2023-03-02T02:17:43;19.67;;;12.07;;
6438;SDS011;3252;52.540;13.290;2023-03-02T02:19:53;18.03;;;11.47;;
6438;SDS011;3252;52.540;13.290;2023-03-02T02:22:07;15.90;;;10.83;;
6438;SDS011;3252;52.540;13.290;2023-03-02T02:24:15;18.33;;;11.20;;
6438;SDS011;3252;52.540;13.290;2023-03-02T02:26:30;18.37;;;10.97;;
6438;SDS011;3252;52.540;13.290;2023-03-02T02:28:40;20.23;;;10.93;;
6438;SDS011;3252;52.540;13.290;2023-03-02T02:30:50;17.83;;;11.60;;
6438;SDS011;3252;52.540;13.290;2023-03-02T02:33:09;17.37;;;11.00;;
6438;SDS011;3252;52.540;13.290;2023-03-02T02:35:26;20.07;;;10.77;;
6438;SDS011;3252;52.540;13.290;2023-03-02T02:37:37;15.77;;;10.50;;
6438;SDS011;3252;52.540;13.290;2023-03-02T02:39:49;18.17;;;10.17;;
6438;SDS011;3252;52.540;13.290;2023-03-02T02:41:59;14.70;;;10.33;;
6438;SDS011;3252;52.540;13.290;2023-03-02T02:44:08;16.37;;;9.60;;
6438;SDS011;3252;52.540;13.290;2023-03-02T02:46:13;16.83;;;10.67;;
6438;SDS011;3252;52.540;13.290;2023-03-02T02:48:17;15.67;;;10.73;;
6438;SDS011;3252;52.540;13.290;2023-03-02T02:50:32;15.03;;;10.17;;
6438;SDS011;3252;52.540;13.290;2023-03-02T02:52:40;15.90;;;9.90;;
6438;SDS011;3252;52.540;13.290;2023-03-02T02:55:02;16.07;;;9.90;;
6438;SDS011;3252;52.540;13.290;2023-03-02T02:57:08;15.80;;;9.70;;
6438;SDS011;3252;52.540;13.290;2023-03-02T02:59:14;14.07;;;9.60;;
6438;SDS011;3252;52.540;13.290;2023-03-02T03:01:36;14.40;;;9.27;;
6438;SDS011;3252;52.540;13.290;2023-03-02T03:03:50;15.73;;;10.00;;
6438;SDS011;3252;52.540;13.290;2023-03-02T03:05:59;15.57;;;11.20;;
6438;SDS011;3252;52.540;13.290;2023-03-02T03:11:01;16.53;;;11.13;;
6438;SDS011;3252;52.540;13.290;2023-03-02T03:13:12;16.73;;;10.50;;
6438;SDS011;3252;52.540;13.290;2023-03-02T03:15:21;14.70;;;9.83;;
6438;SDS011;3252;52.540;13.290;2023-03-02T03:17:26;15.07;;;10.17;;
6438;SDS011;3252;52.540;13.290;2023-03-02T03:19:34;16.47;;;10.73;;
6438;SDS011;3252;52.540;13.290;2023-03-02T03:21:44;14.90;;;10.40;;
6438;SDS011;3252;52.540;13.290;2023-03-02T03:24:00;15.87;;;10.40;;
6438;SDS011;3252;52.540;13.290;2023-03-02T03:26:04;16.80;;;10.43;;
6438;SDS011;3252;52.540;13.290;2023-03-02T03:28:11;17.00;;;10.03;;
6438;SDS011;3252;52.540;13.290;2023-03-02T03:30:17;15.80;;;10.27;;
6438;SDS011;3252;52.540;13.290;2023-03-02T03:32:23;16.87;;;10.03;;
6438;SDS011;3252;52.540;13.290;2023-03-02T03:34:29;16.93;;;10.83;;
6438;SDS011;3252;52.540;13.290;2023-03-02T03:36:46;14.70;;;10.83;;
6438;SDS011;3252;52.540;13.290;2023-03-02T03:39:00;16.67;;;11.60;;
6438;SDS011;3252;52.540;13.290;2023-03-02T03:41:13;16.73;;;10.90;;
6438;SDS011;3252;52.540;13.290;2023-03-02T03:43:23;15.13;;;10.03;;
6438;SDS011;3252;52.540;13.290;2023-03-02T03:45:36;15.73;;;9.93;;
6438;SDS011;3252;52.540;13.290;2023-03-02T03:47:49;17.37;;;10.80;;
6438;SDS011;3252;52.540;13.290;2023-03-02T03:49:52;14.17;;;9.80;;
6438;SDS011;3252;52.540;13.290;2023-03-02T03:51:57;14.93;;;10.20;;
6438;SDS011;3252;52.540;13.290;2023-03-02T03:54:07;17.57;;;10.40;;
6438;SDS011;3252;52.540;13.290;2023-03-02T03:56:27;16.20;;;10.37;;
6438;SDS011;3252;52.540;13.290;2023-03-02T03:58:33;14.87;;;9.83;;
6438;SDS011;3252;52.540;13.290;2023-03-02T04:00:45;15.97;;;10.37;;
6438;SDS011;3252;52.540;13.290;2023-03-02T04:02:49;15.77;;;10.50;;
6438;SDS011;3252;52.540;13.290;2023-03-02T04:05:00;15.93;;;10.53;;
6438;SDS011;3252;52.540;13.290;2023-03-02T04:07:33;18.93;;;11.20;;
6438;SDS011;3252;52.540;13.290;2023-03-02T04:09:36;14.80;;;10.80;;
6438;SDS011;3252;52.540;13.290;2023-03-02T04:11:49;17.00;;;11.33;;
6438;SDS011;3252;52.540;13.290;2023-03-02T04:13:55;23.23;;;12.50;;
6438;SDS011;3252;52.540;13.290;2023-03-02T04:16:10;15.13;;;11.20;;
6438;SDS011;3252;52.540;13.290;2023-03-02T04:18:16;16.77;;;11.43;;
6438;SDS011;3252;52.540;13.290;2023-03-02T04:20:25;20.20;;;12.57;;
6438;SDS011;3252;52.540;13.290;2023-03-02T04:22:30;20.13;;;12.57;;
6438;SDS011;3252;52.540;13.290;2023-03-02T04:24:41;21.37;;;12.13;;
6438;SDS011;3252;52.540;13.290;2023-03-02T04:26:48;17.20;;;12.07;;
6438;SDS011;3252;52.540;13.290;2023-03-02T04:28:52;18.30;;;11.10;;
6438;SDS011;3252;52.540;13.290;2023-03-02T04:31:04;16.43;;;11.33;;
6438;SDS011;3252;52.540;13.290;2023-03-02T04:33:10;18.20;;;11.83;;
6438;SDS011;3252;52.540;13.290;2023-03-02T04:35:16;19.33;;;12.33;;
6438;SDS011;3252;52.540;13.290;2023-03-02T04:37:26;17.40;;;11.90;;
6438;SDS011;3252;52.540;13.290;2023-03-02T04:39:32;19.77;;;11.93;;
6438;SDS011;3252;52.540;13.290;2023-03-02T04:41:37;19.47;;;12.67;;
6438;SDS011;3252;52.540;13.290;2023-03-02T04:43:46;17.70;;;11.60;;
6438;SDS011;3252;52.540;13.290;2023-03-02T04:46:09;16.57;;;11.67;;
6438;SDS011;3252;52.540;13.290;2023-03-02T04:48:21;17.67;;;11.23;;
6438;SDS011;3252;52.540;13.290;2023-03-02T04:50:27;16.67;;;11.63;;
6438;SDS011;3252;52.540;13.290;2023-03-02T04:52:29;17.60;;;11.50;;
6438;SDS011;3252;52.540;13.290;2023-03-02T04:54:46;17.43;;;11.53;;
6438;SDS011;3252;52.540;13.290;2023-03-02T04:56:49;16.23;;;11.47;;
6438;SDS011;3252;52.540;13.290;2023-03-02T04:59:01;16.60;;;12.63;;
6438;SDS011;3252;52.540;13.290;2023-03-02T05:01:05;21.80;;;12.87;;
6438;SDS011;3252;52.540;13.290;2023-03-02T05:03:20;19.90;;;13.50;;
6438;SDS011;3252;52.540;13.290;2023-03-02T05:05:30;20.63;;;12.97;;
6438;SDS011;3252;52.540;13.290;2023-03-02T05:07:34;20.50;;;12.50;;
6438;SDS011;3252;52.540;13.290;2023-03-02T05:09:44;19.57;;;13.17;;
6438;SDS011;3252;52.540;13.290;2023-03-02T05:12:01;18.37;;;11.80;;
6438;SDS011;3252;52.540;13.290;2023-03-02T05:14:12;18.03;;;11.90;;
6438;SDS011;3252;52.540;13.290;2023-03-02T05:16:18;19.17;;;11.90;;
6438;SDS011;3252;52.540;13.290;2023-03-02T05:18:23;15.53;;;11.60;;
6438;SDS011;3252;52.540;13.290;2023-03-02T05:20:26;18.53;;;12.20;;
6438;SDS011;3252;52.540;13.290;2023-03-02T05:22:32;19.80;;;12.50;;
6438;SDS011;3252;52.540;13.290;2023-03-02T05:24:34;23.03;;;15.37;;
6438;SDS011;3252;52.540;13.290;2023-03-02T05:26:37;19.20;;;13.17;;
6438;SDS011;3252;52.540;13.290;2023-03-02T05:28:43;27.73;;;16.27;;
6438;SDS011;3252;52.540;13.290;2023-03-02T05:31:16;18.60;;;12.67;;
6438;SDS011;3252;52.540;13.290;2023-03-02T05:33:19;22.47;;;12.73;;
6438;SDS011;3252;52.540;13.290;2023-03-02T05:35:23;24.30;;;13.10;;
6438;SDS011;3252;52.540;13.290;2023-03-02T05:37:34;17.03;;;12.23;;
6438;SDS011;3252;52.540;13.290;2023-03-02T05:39:39;20.83;;;13.00;;
6438;SDS011;3252;52.540;13.290;2023-03-02T05:41:41;18.23;;;12.97;;
6438;SDS011;3252;52.540;13.290;2023-03-02T05:43:44;20.97;;;12.93;;
6438;SDS011;3252;52.540;13.290;2023-03-02T05:45:46;21.70;;;12.97;;
6438;SDS011;3252;52.540;13.290;2023-03-02T05:47:48;18.53;;;13.30;;
6438;SDS011;3252;52.540;13.290;2023-03-02T05:49:50;21.20;;;14.27;;
6438;SDS011;3252;52.540;13.290;2023-03-02T05:51:54;20.77;;;13.73;;
6438;SDS011;3252;52.540;13.290;2023-03-02T05:53:59;23.73;;;14.93;;
6438;SDS011;3252;52.540;13.290;2023-03-02T05:56:04;22.77;;;15.47;;
6438;SDS011;3252;52.540;13.290;2023-03-02T05:58:08;24.43;;;16.53;;
6438;SDS011;3252;52.540;13.290;2023-03-02T06:00:14;29.50;;;16.53;;
6438;SDS011;3252;52.540;13.290;2023-03-02T06:02:17;26.37;;;14.13;;
6438;SDS011;3252;52.540;13.290;2023-03-02T06:04:20;24.97;;;13.97;;
6438;SDS011;3252;52.540;13.290;2023-03-02T06:06:22;22.23;;;14.23;;
6438;SDS011;3252;52.540;13.290;2023-03-02T06:08:26;22.23;;;14.87;;
6438;SDS011;3252;52.540;13.290;2023-03-02T06:10:28;23.77;;;14.30;;
6438;SDS011;3252;52.540;13.290;2023-03-02T06:12:31;21.83;;;14.03;;
6438;SDS011;3252;52.540;13.290;2023-03-02T06:14:34;21.67;;;14.43;;
6438;SDS011;3252;52.540;13.290;2023-03-02T06:16:36;23.23;;;15.10;;
6438;SDS011;3252;52.540;13.290;2023-03-02T06:18:38;33.40;;;19.97;;
6438;SDS011;3252;52.540;13.290;2023-03-02T06:20:41;24.80;;;15.97;;
6438;SDS011;3252;52.540;13.290;2023-03-02T06:22:44;21.87;;;15.17;;
6438;SDS011;3252;52.540;13.290;2023-03-02T06:24:48;25.77;;;16.00;;
6438;SDS011;3252;52.540;13.290;2023-03-02T06:26:51;28.80;;;17.03;;
6438;SDS011;3252;52.540;13.290;2023-03-02T06:28:54;31.73;;;18.90;;
6438;SDS011;3252;52.540;13.290;2023-03-02T06:30:56;41.23;;;21.83;;
6438;SDS011;3252;52.540;13.290;2023-03-02T06:32:59;41.13;;;23.20;;
6438;SDS011;3252;52.540;13.290;2023-03-02T06:35:02;45.37;;;25.10;;
6438;SDS011;3252;52.540;13.290;2023-03-02T06:37:05;47.50;;;25.03;;
6438;SDS011;3252;52.540;13.290;2023-03-02T06:39:08;44.00;;;25.07;;
6438;SDS011;3252;52.540;13.290;2023-03-02T06:41:16;41.60;;;24.57;;
6438;SDS011;3252;52.540;13.290;2023-03-02T06:43:18;42.93;;;25.07;;
6438;SDS011;3252;52.540;13.290;2023-03-02T06:45:21;45.60;;;24.97;;
6438;SDS011;3252;52.540;13.290;2023-03-02T06:47:23;52.13;;;25.17;;
6438;SDS011;3252;52.540;13.290;2023-03-02T06:49:25;60.27;;;27.87;;
6438;SDS011;3252;52.540;13.290;2023-03-02T06:51:28;52.30;;;26.20;;
6438;SDS011;3252;52.540;13.290;2023-03-02T06:53:30;65.30;;;25.23;;
6438;SDS011;3252;52.540;13.290;2023-03-02T06:55:32;54.10;;;26.33;;
6438;SDS011;3252;52.540;13.290;2023-03-02T06:57:36;44.27;;;25.87;;
6438;SDS011;3252;52.540;13.290;2023-03-02T06:59:40;56.53;;;26.50;;
6438;SDS011;3252;52.540;13.290;2023-03-02T07:01:42;70.93;;;25.83;;
6438;SDS011;3252;52.540;13.290;2023-03-02T07:03:46;49.60;;;24.83;;
6438;SDS011;3252;52.540;13.290;2023-03-02T07:05:48;47.53;;;25.97;;
6438;SDS011;3252;52.540;13.290;2023-03-02T07:07:51;46.57;;;25.53;;
6438;SDS011;3252;52.540;13.290;2023-03-02T07:09:54;48.00;;;27.50;;
6438;SDS011;3252;52.540;13.290;2023-03-02T07:11:56;47.93;;;24.93;;
6438;SDS011;3252;52.540;13.290;2023-03-02T07:14:01;45.90;;;27.07;;
6438;SDS011;3252;52.540;13.290;2023-03-02T07:16:07;48.53;;;27.83;;
6438;SDS011;3252;52.540;13.290;2023-03-02T07:18:13;46.30;;;27.50;;
6438;SDS011;3252;52.540;13.290;2023-03-02T07:20:16;45.00;;;25.60;;
6438;SDS011;3252;52.540;13.290;2023-03-02T07:22:19;46.57;;;28.20;;
6438;SDS011;3252;52.540;13.290;2023-03-02T07:24:21;45.67;;;27.10;;
6438;SDS011;3252;52.540;13.290;2023-03-02T07:26:23;43.37;;;25.97;;
6438;SDS011;3252;52.540;13.290;2023-03-02T07:28:26;42.77;;;24.73;;
6438;SDS011;3252;52.540;13.290;2023-03-02T07:30:30;41.60;;;26.47;;
6438;SDS011;3252;52.540;13.290;2023-03-02T07:32:32;40.57;;;25.10;;
6438;SDS011;3252;52.540;13.290;2023-03-02T07:34:34;38.67;;;21.20;;
6438;SDS011;3252;52.540;13.290;2023-03-02T07:36:40;37.70;;;23.23;;
6438;SDS011;3252;52.540;13.290;2023-03-02T07:38:46;43.97;;;25.03;;
6438;SDS011;3252;52.540;13.290;2023-03-02T07:40:49;36.13;;;23.77;;
6438;SDS011;3252;52.540;13.290;2023-03-02T07:42:55;44.00;;;25.73;;
6438;SDS011;3252;52.540;13.290;2023-03-02T07:44:57;34.50;;;22.87;;
6438;SDS011;3252;52.540;13.290;2023-03-02T07:47:04;42.27;;;25.80;;
6438;SDS011;3252;52.540;13.290;2023-03-02T07:49:06;41.40;;;23.90;;
6438;SDS011;3252;52.540;13.290;2023-03-02T07:51:09;36.10;;;23.57;;
6438;SDS011;3252;52.540;13.290;2023-03-02T07:53:11;36.63;;;23.87;;
6438;SDS011;3252;52.540;13.290;2023-03-02T07:55:15;38.03;;;25.33;;
6438;SDS011;3252;52.540;13.290;2023-03-02T07:57:18;37.23;;;25.27;;
6438;SDS011;3252;52.540;13.290;2023-03-02T07:59:20;39.83;;;24.27;;
6438;SDS011;3252;52.540;13.290;2023-03-02T08:01:23;38.10;;;23.87;;
6438;SDS011;3252;52.540;13.290;2023-03-02T08:03:27;43.37;;;24.07;;
6438;SDS011;3252;52.540;13.290;2023-03-02T08:05:29;39.87;;;24.50;;
6438;SDS011;3252;52.540;13.290;2023-03-02T08:07:31;38.93;;;24.10;;
6438;SDS011;3252;52.540;13.290;2023-03-02T08:09:34;36.70;;;23.77;;
6438;SDS011;3252;52.540;13.290;2023-03-02T08:11:38;36.63;;;23.77;;
6438;SDS011;3252;52.540;13.290;2023-03-02T08:13:41;39.57;;;25.93;;
6438;SDS011;3252;52.540;13.290;2023-03-02T08:15:43;43.17;;;26.33;;
6438;SDS011;3252;52.540;13.290;2023-03-02T08:17:46;36.07;;;24.67;;
6438;SDS011;3252;52.540;13.290;2023-03-02T08:19:50;38.00;;;24.63;;
6438;SDS011;3252;52.540;13.290;2023-03-02T08:21:52;37.60;;;25.67;;
6438;SDS011;3252;52.540;13.290;2023-03-02T08:23:54;39.43;;;25.03;;
6438;SDS011;3252;52.540;13.290;2023-03-02T08:25:58;38.20;;;25.60;;
6438;SDS011;3252;52.540;13.290;2023-03-02T08:28:03;37.53;;;25.07;;
6438;SDS011;3252;52.540;13.290;2023-03-02T08:30:07;38.53;;;25.57;;
6438;SDS011;3252;52.540;13.290;2023-03-02T08:32:10;39.33;;;26.50;;
6438;SDS011;3252;52.540;13.290;2023-03-02T08:34:12;42.87;;;27.67;;
6438;SDS011;3252;52.540;13.290;2023-03-02T08:36:16;39.73;;;26.23;;
6438;SDS011;3252;52.540;13.290;2023-03-02T08:38:19;41.33;;;27.73;;
6438;SDS011;3252;52.540;13.290;2023-03-02T08:40:21;42.33;;;26.83;;
6438;SDS011;3252;52.540;13.290;2023-03-02T08:42:23;42.57;;;27.43;;
6438;SDS011;3252;52.540;13.290;2023-03-02T08:44:26;44.20;;;28.67;;
6438;SDS011;3252;52.540;13.290;2023-03-02T08:46:29;47.63;;;29.17;;
6438;SDS011;3252;52.540;13.290;2023-03-02T08:48:31;42.90;;;28.90;;
6438;SDS011;3252;52.540;13.290;2023-03-02T08:50:34;45.87;;;27.73;;
6438;SDS011;3252;52.540;13.290;2023-03-02T08:52:37;43.57;;;28.10;;
6438;SDS011;3252;52.540;13.290;2023-03-02T08:54:39;40.70;;;27.33;;
6438;SDS011;3252;52.540;13.290;2023-03-02T08:56:42;41.03;;;27.97;;
6438;SDS011;3252;52.540;13.290;2023-03-02T08:58:44;47.30;;;28.83;;
6438;SDS011;3252;52.540;13.290;2023-03-02T09:01:12;41.83;;;27.67;;
6438;SDS011;3252;52.540;13.290;2023-03-02T09:03:15;41.90;;;27.37;;
6438;SDS011;3252;52.540;13.290;2023-03-02T09:05:17;44.70;;;27.83;;
6438;SDS011;3252;52.540;13.290;2023-03-02T09:07:21;41.07;;;27.27;;
6438;SDS011;3252;52.540;13.290;2023-03-02T09:09:24;38.37;;;26.40;;
6438;SDS011;3252;52.540;13.290;2023-03-02T09:11:27;39.23;;;26.10;;
6438;SDS011;3252;52.540;13.290;2023-03-02T09:13:29;37.97;;;27.53;;
6438;SDS011;3252;52.540;13.290;2023-03-02T09:15:32;41.77;;;27.80;;
6438;SDS011;3252;52.540;13.290;2023-03-02T09:17:35;39.30;;;25.93;;
6438;SDS011;3252;52.540;13.290;2023-03-02T09:19:40;37.43;;;25.77;;
6438;SDS011;3252;52.540;13.290;2023-03-02T09:21:42;40.70;;;26.17;;
6438;SDS011;3252;52.540;13.290;2023-03-02T09:23:45;41.97;;;26.10;;
6438;SDS011;3252;52.540;13.290;2023-03-02T09:25:48;42.07;;;28.97;;
6438;SDS011;3252;52.540;13.290;2023-03-02T09:27:51;40.20;;;27.63;;
6438;SDS011;3252;52.540;13.290;2023-03-02T09:29:53;41.63;;;27.33;;
6438;SDS011;3252;52.540;13.290;2023-03-02T09:31:59;41.13;;;26.57;;
6438;SDS011;3252;52.540;13.290;2023-03-02T09:34:02;41.87;;;27.60;;
6438;SDS011;3252;52.540;13.290;2023-03-02T09:36:05;40.00;;;26.30;;
6438;SDS011;3252;52.540;13.290;2023-03-02T09:38:09;41.37;;;27.37;;
6438;SDS011;3252;52.540;13.290;2023-03-02T09:40:16;38.63;;;25.87;;
6438;SDS011;3252;52.540;13.290;2023-03-02T09:42:25;39.77;;;26.77;;
6438;SDS011;3252;52.540;13.290;2023-03-02T09:44:43;36.73;;;26.00;;
6438;SDS011;3252;52.540;13.290;2023-03-02T09:47:09;35.40;;;25.63;;
6438;SDS011;3252;52.540;13.290;2023-03-02T09:49:19;38.13;;;26.73;;
6438;SDS011;3252;52.540;13.290;2023-03-02T09:51:30;34.70;;;23.03;;
6438;SDS011;3252;52.540;13.290;2023-03-02T09:53:36;35.13;;;24.67;;
6438;SDS011;3252;52.540;13.290;2023-03-02T09:55:44;33.80;;;24.07;;
6438;SDS011;3252;52.540;13.290;2023-03-02T09:57:49;35.37;;;24.40;;
6438;SDS011;3252;52.540;13.290;2023-03-02T09:59:56;32.77;;;24.10;;
6438;SDS011;3252;52.540;13.290;2023-03-02T10:02:18;30.43;;;21.90;;
6438;SDS011;3252;52.540;13.290;2023-03-02T10:04:27;36.53;;;23.07;;
6438;SDS011;3252;52.540;13.290;2023-03-02T10:06:31;28.80;;;20.37;;
6438;SDS011;3252;52.540;13.290;2023-03-02T10:08:34;28.93;;;21.50;;
6438;SDS011;3252;52.540;13.290;2023-03-02T10:10:41;34.87;;;24.53;;
6438;SDS011;3252;52.540;13.290;2023-03-02T10:12:47;31.17;;;21.40;;
6438;SDS011;3252;52.540;13.290;2023-03-02T10:15:05;32.30;;;22.97;;
6438;SDS011;3252;52.540;13.290;2023-03-02T10:17:18;28.50;;;20.87;;
6438;SDS011;3252;52.540;13.290;2023-03-02T10:19:29;27.57;;;20.10;;
6438;SDS011;3252;52.540;13.290;2023-03-02T10:21:44;29.17;;;21.00;;
6438;SDS011;3252;52.540;13.290;2023-03-02T10:23:51;27.50;;;21.73;;
6438;SDS011;3252;52.540;13.290;2023-03-02T10:25:59;31.13;;;21.73;;
6438;SDS011;3252;52.540;13.290;2023-03-02T10:28:11;29.83;;;21.97;;
6438;SDS011;3252;52.540;13.290;2023-03-02T10:30:18;31.93;;;20.23;;
6438;SDS011;3252;52.540;13.290;2023-03-02T10:32:28;27.30;;;20.73;;
6438;SDS011;3252;52.540;13.290;2023-03-02T10:34:33;26.17;;;20.13;;
6438;SDS011;3252;52.540;13.290;2023-03-02T10:36:42;29.10;;;19.90;;
6438;SDS011;3252;52.540;13.290;2023-03-02T10:38:47;28.27;;;20.77;;
6438;SDS011;3252;52.540;13.290;2023-03-02T10:40:50;25.93;;;19.80;;
6438;SDS011;3252;52.540;13.290;2023-03-02T10:42:59;30.00;;;19.90;;
6438;SDS011;3252;52.540;13.290;2023-03-02T10:45:07;30.80;;;20.10;;
6438;SDS011;3252;52.540;13.290;2023-03-02T10:47:24;26.60;;;20.23;;
6438;SDS011;3252;52.540;13.290;2023-03-02T10:49:28;27.60;;;20.87;;
6438;SDS011;3252;52.540;13.290;2023-03-02T10:51:32;26.47;;;18.63;;
6438;SDS011;3252;52.540;13.290;2023-03-02T10:53:35;24.00;;;18.57;;
6438;SDS011;3252;52.540;13.290;2023-03-02T10:55:42;24.17;;;18.13;;
6438;SDS011;3252;52.540;13.290;2023-03-02T10:57:55;25.90;;;18.60;;
6438;SDS011;3252;52.540;13.290;2023-03-02T11:00:12;25.40;;;18.47;;
6438;SDS011;3252;52.540;13.290;2023-03-02T11:02:21;23.70;;;18.40;;
6438;SDS011;3252;52.540;13.290;2023-03-02T11:04:26;25.43;;;19.17;;
6438;SDS011;3252;52.540;13.290;2023-03-02T11:06:28;20.37;;;17.23;;
6438;SDS011;3252;52.540;13.290;2023-03-02T11:08:31;21.63;;;17.43;;
6438;SDS011;3252;52.540;13.290;2023-03-02T11:10:35;23.33;;;17.50;;
6438;SDS011;3252;52.540;13.290;2023-03-02T11:12:49;26.60;;;18.33;;
6438;SDS011;3252;52.540;13.290;2023-03-02T11:17:26;27.30;;;18.83;;
6438;SDS011;3252;52.540;13.290;2023-03-02T11:19:35;26.33;;;18.23;;
6438;SDS011;3252;52.540;13.290;2023-03-02T11:21:42;21.97;;;17.43;;
6438;SDS011;3252;52.540;13.290;2023-03-02T11:23:54;20.83;;;16.67;;
6438;SDS011;3252;52.540;13.290;2023-03-02T11:26:12;20.23;;;16.97;;
6438;SDS011;3252;52.540;13.290;2023-03-02T11:28:28;18.97;;;15.60;;
6438;SDS011;3252;52.540;13.290;2023-03-02T11:30:44;22.87;;;15.50;;
6438;SDS011;3252;52.540;13.290;2023-03-02T11:32:51;21.37;;;16.40;;
6438;SDS011;3252;52.540;13.290;2023-03-02T11:34:59;19.73;;;16.27;;
6438;SDS011;3252;52.540;13.290;2023-03-02T11:37:11;19.70;;;16.50;;
6438;SDS011;3252;52.540;13.290;2023-03-02T11:39:19;20.17;;;15.13;;
6438;SDS011;3252;52.540;13.290;2023-03-02T11:41:26;19.40;;;15.50;;
6438;SDS011;3252;52.540;13.290;2023-03-02T11:43:31;18.03;;;14.73;;
6438;SDS011;3252;52.540;13.290;2023-03-02T11:45:34;17.27;;;14.70;;
6438;SDS011;3252;52.540;13.290;2023-03-02T11:47:40;16.80;;;14.80;;
6438;SDS011;3252;52.540;13.290;2023-03-02T11:49:47;16.20;;;14.47;;
6438;SDS011;3252;52.540;13.290;2023-03-02T11:51:55;15.57;;;13.87;;
6438;SDS011;3252;52.540;13.290;2023-03-02T11:53:59;21.23;;;13.77;;
6438;SDS011;3252;52.540;13.290;2023-03-02T11:56:04;16.80;;;13.90;;
6438;SDS011;3252;52.540;13.290;2023-03-02T11:58:10;14.57;;;13.10;;
6438;SDS011;3252;52.540;13.290;2023-03-02T12:00:26;19.00;;;14.17;;
6438;SDS011;3252;52.540;13.290;2023-03-02T12:02:31;15.13;;;12.93;;
6438;SDS011;3252;52.540;13.290;2023-03-02T12:04:35;13.67;;;12.27;;
6438;SDS011;3252;52.540;13.290;2023-03-02T12:06:39;15.33;;;11.83;;
6438;SDS011;3252;52.540;13.290;2023-03-02T12:08:44;12.13;;;10.93;;
6438;SDS011;3252;52.540;13.290;2023-03-02T12:10:55;15.03;;;12.70;;
6438;SDS011;3252;52.540;13.290;2023-03-02T12:13:01;20.88;;;11.68;;
6438;SDS011;3252;52.540;13.290;2023-03-02T12:15:24;13.32;;;12.00;;
6438;SDS011;3252;52.540;13.290;2023-03-02T12:17:31;13.50;;;12.13;;
6438;SDS011;3252;52.540;13.290;2023-03-02T12:19:40;12.13;;;10.93;;
6438;SDS011;3252;52.540;13.290;2023-03-02T12:21:54;11.90;;;10.75;;
6438;SDS011;3252;52.540;13.290;2023-03-02T12:23:58;12.10;;;10.90;;
6438;SDS011;3252;52.540;13.290;2023-03-02T12:26:04;12.98;;;11.07;;
6438;SDS011;3252;52.540;13.290;2023-03-02T12:28:23;13.82;;;10.55;;
6438;SDS011;3252;52.540;13.290;2023-03-02T12:30:27;12.32;;;11.02;;
6438;SDS011;3252;52.540;13.290;2023-03-02T12:32:30;19.00;;;12.15;;
6438;SDS011;3252;52.540;13.290;2023-03-02T12:34:34;12.63;;;11.40;;
6438;SDS011;3252;52.540;13.290;2023-03-02T12:36:41;15.32;;;11.30;;
6438;SDS011;3252;52.540;13.290;2023-03-02T12:38:47;14.90;;;11.05;;
6438;SDS011;3252;52.540;13.290;2023-03-02T12:41:14;13.48;;;11.30;;
6438;SDS011;3252;52.540;13.290;2023-03-02T12:43:30;13.05;;;11.70;;
6438;SDS011;3252;52.540;13.290;2023-03-02T12:45:37;13.23;;;11.20;;